Time,TemperatureF,DewpointF,PressureIn,WindDirection,WindDirectionDegrees,WindSpeedMPH,WindSpeedGustMPH,Humidity,HourlyPrecipIn,Conditions,Clouds,dailyrainin,SoftwareType,DateUTC
2013-12-31 00:00:00,-14.0,-19.6,29.62,WSW,248,0.0,0.0,75,0.00,,,-99.99,VWS V12.07,2013-12-31 06:00:00,
2013-12-31 00:05:00,-14.0,-19.6,29.61,WSW,248,0.0,0.0,75,0.00,,,-99.99,VWS V12.07,2013-12-31 06:05:00,
2013-12-31 00:10:00,-14.2,-19.8,29.61,WSW,248,0.0,0.0,75,0.00,,,-99.99,VWS V12.07,2013-12-31 06:10:00,
2013-12-31 00:15:00,-14.2,-19.8,29.61,WSW,248,0.0,0.0,75,0.00,,,-99.99,VWS V12.07,2013-12-31 06:15:00,
2013-12-31 00:20:00,-14.2,-19.8,29.61,WSW,248,0.0,0.0,75,0.00,,,-99.99,VWS V12.07,2013-12-31 06:20:00,
2013-12-31 00:25:00,-14.2,-19.8,29.61,WSW,248,0.0,0.0,75,0.00,,,-99.99,VWS V12.07,2013-12-31 06:25:00,
2013-12-31 00:35:00,-14.2,-19.8,29.60,WSW,248,0.0,0.0,75,0.00,,,-99.99,VWS V12.07,2013-12-31 06:35:00,
2013-12-31 00:40:00,-14.2,-19.8,29.60,WSW,248,0.0,0.0,75,0.00,,,-99.99,VWS V12.07,2013-12-31 06:40:00,
2013-12-31 00:45:00,-14.2,-19.8,29.60,WSW,248,0.0,0.0,75,0.00,,,-99.99,VWS V12.07,2013-12-31 06:45:00,
2013-12-31 00:50:00,-14.4,-20.0,29.60,WSW,248,0.0,0.0,75,0.00,,,-99.99,VWS V12.07,2013-12-31 06:50:00,
2013-12-31 00:55:00,-14.4,-20.0,29.60,WSW,248,0.0,0.0,75,0.00,,,-99.99,VWS V12.07,2013-12-31 06:55:00,
2013-12-31 01:00:00,-14.6,-20.2,29.60,WSW,248,0.0,0.0,75,0.00,,,-99.99,VWS V12.07,2013-12-31 07:00:00,
2013-12-31 01:05:00,-14.6,-20.2,29.60,WSW,248,0.0,0.0,75,0.00,,,-99.99,VWS V12.07,2013-12-31 07:05:00,
2013-12-31 01:10:00,-14.6,-20.2,29.60,WSW,248,0.0,0.0,75,0.00,,,-99.99,VWS V12.07,2013-12-31 07:10:00,
2013-12-31 01:15:00,-14.9,-20.5,29.60,WSW,248,0.0,0.0,75,0.00,,,-99.99,VWS V12.07,2013-12-31 07:15:00,
2013-12-31 01:20:00,-14.9,-20.5,29.60,WSW,248,0.0,0.0,75,0.00,,,-99.99,VWS V12.07,2013-12-31 07:20:00,
2013-12-31 01:25:00,-14.9,-20.5,29.60,WSW,248,0.0,0.0,75,0.00,,,-99.99,VWS V12.07,2013-12-31 07:25:00,
2013-12-31 01:30:00,-15.1,-20.7,29.60,WSW,248,0.0,0.0,75,0.00,,,-99.99,VWS V12.07,2013-12-31 07:30:00,
2013-12-31 01:35:00,-15.1,-20.7,29.60,WSW,248,0.0,0.0,75,0.00,,,-99.99,VWS V12.07,2013-12-31 07:35:00,
2013-12-31 01:40:00,-15.5,-21.1,29.60,WSW,248,0.0,0.0,75,0.00,,,-99.99,VWS V12.07,2013-12-31 07:40:00,
2013-12-31 01:45:00,-15.5,-21.1,29.60,WSW,248,0.0,0.0,75,0.00,,,-99.99,VWS V12.07,2013-12-31 07:45:00,
2013-12-31 01:50:00,-15.5,-21.1,29.60,WSW,248,0.0,0.0,75,0.00,,,-99.99,VWS V12.07,2013-12-31 07:50:00,
2013-12-31 01:55:00,-15.7,-21.3,29.60,WSW,248,0.0,0.0,75,0.00,,,-99.99,VWS V12.07,2013-12-31 07:55:00,
2013-12-31 02:00:00,-15.7,-21.3,29.60,WSW,248,0.0,0.0,75,0.00,,,-99.99,VWS V12.07,2013-12-31 08:00:00,
2013-12-31 02:05:00,-15.8,-21.4,29.60,WSW,248,0.0,0.0,75,0.00,,,-99.99,VWS V12.07,2013-12-31 08:05:00,
2013-12-31 02:10:00,-15.8,-21.4,29.60,WSW,248,0.0,0.0,75,0.00,,,-99.99,VWS V12.07,2013-12-31 08:10:00,
2013-12-31 02:15:00,-16.0,-21.6,29.60,WSW,248,0.0,0.0,75,0.00,,,-99.99,VWS V12.07,2013-12-31 08:15:00,
2013-12-31 02:20:00,-16.0,-21.6,29.60,WSW,248,0.0,0.0,75,0.00,,,-99.99,VWS V12.07,2013-12-31 08:20:00,
2013-12-31 02:25:00,-16.2,-21.8,29.60,WSW,248,0.0,0.0,75,0.00,,,-99.99,VWS V12.07,2013-12-31 08:25:00,
2013-12-31 02:30:00,-16.4,-22.0,29.60,WSW,248,0.0,0.0,75,0.00,,,-99.99,VWS V12.07,2013-12-31 08:30:00,
2013-12-31 02:35:00,-16.6,-22.1,29.60,WSW,248,0.0,0.0,75,0.00,,,-99.99,VWS V12.07,2013-12-31 08:35:00,
2013-12-31 02:40:00,-16.7,-22.2,29.60,WSW,248,0.0,0.0,75,0.00,,,-99.99,VWS V12.07,2013-12-31 08:40:00,
2013-12-31 02:45:00,-16.7,-22.2,29.61,WSW,248,0.0,0.0,75,0.00,,,-99.99,VWS V12.07,2013-12-31 08:45:00,
2013-12-31 02:50:00,-16.9,-22.4,29.61,WSW,248,0.0,0.0,75,0.00,,,-99.99,VWS V12.07,2013-12-31 08:50:00,
2013-12-31 02:55:00,-17.1,-22.6,29.61,WSW,248,0.0,0.0,75,0.00,,,-99.99,VWS V12.07,2013-12-31 08:55:00,
2013-12-31 03:00:00,-17.3,-22.8,29.61,WSW,248,0.0,0.0,75,0.00,,,-99.99,VWS V12.07,2013-12-31 09:00:00,
2013-12-31 03:05:00,-17.5,-23.0,29.61,WSW,248,0.0,0.0,75,0.00,,,-99.99,VWS V12.07,2013-12-31 09:05:00,
2013-12-31 03:10:00,-17.6,-23.1,29.61,WSW,248,0.0,0.0,75,0.00,,,-99.99,VWS V12.07,2013-12-31 09:10:00,
2013-12-31 03:15:00,-17.6,-23.1,29.61,WSW,248,0.0,0.0,75,0.00,,,-99.99,VWS V12.07,2013-12-31 09:15:00,
2013-12-31 03:20:00,-18.0,-23.5,29.61,WSW,248,0.0,0.0,75,0.00,,,-99.99,VWS V12.07,2013-12-31 09:20:00,
2013-12-31 03:25:00,-18.0,-23.5,29.61,WSW,248,0.0,0.0,75,0.00,,,-99.99,VWS V12.07,2013-12-31 09:25:00,
2013-12-31 03:30:00,-18.2,-23.7,29.61,WSW,248,0.0,0.0,75,0.00,,,-99.99,VWS V12.07,2013-12-31 09:30:00,
2013-12-31 03:35:00,-18.2,-23.7,29.61,WSW,248,0.0,0.0,75,0.00,,,-99.99,VWS V12.07,2013-12-31 09:35:00,
2013-12-31 03:40:00,-18.5,-24.0,29.60,WSW,248,0.0,0.0,75,0.00,,,-99.99,VWS V12.07,2013-12-31 09:40:00,
2013-12-31 03:45:00,-18.5,-24.0,29.60,WSW,248,0.0,0.0,75,0.00,,,-99.99,VWS V12.07,2013-12-31 09:45:00,
2013-12-31 03:50:00,-18.7,-24.2,29.61,WSW,248,0.0,0.0,75,0.00,,,-99.99,VWS V12.07,2013-12-31 09:50:00,
2013-12-31 03:55:00,-18.7,-24.2,29.61,WSW,248,0.0,0.0,75,0.00,,,-99.99,VWS V12.07,2013-12-31 09:55:00,
2013-12-31 04:00:00,-18.7,-24.2,29.60,WSW,248,0.0,0.0,75,0.00,,,-99.99,VWS V12.07,2013-12-31 10:00:00,
2013-12-31 04:05:00,-19.1,-24.6,29.61,WSW,248,0.0,0.0,75,0.00,,,-99.99,VWS V12.07,2013-12-31 10:05:00,
2013-12-31 04:10:00,-19.1,-24.6,29.61,WSW,248,0.0,0.0,75,0.00,,,-99.99,VWS V12.07,2013-12-31 10:10:00,
2013-12-31 04:15:00,-19.3,-24.8,29.61,WSW,248,0.0,0.0,75,0.00,,,-99.99,VWS V12.07,2013-12-31 10:15:00,
2013-12-31 04:20:00,-19.6,-25.1,29.60,WSW,248,0.0,0.0,75,0.00,,,-99.99,VWS V12.07,2013-12-31 10:20:00,
2013-12-31 04:25:00,-19.6,-25.1,29.60,WSW,248,0.0,0.0,75,0.00,,,-99.99,VWS V12.07,2013-12-31 10:25:00,
2013-12-31 04:30:00,-19.6,-25.1,29.60,WSW,248,0.0,0.0,75,0.00,,,-99.99,VWS V12.07,2013-12-31 10:30:00,
2013-12-31 04:35:00,-19.8,-25.2,29.61,WSW,248,0.0,0.0,75,0.00,,,-99.99,VWS V12.07,2013-12-31 10:35:00,
2013-12-31 04:40:00,-19.8,-25.2,29.60,WSW,248,0.0,0.0,75,0.00,,,-99.99,VWS V12.07,2013-12-31 10:40:00,
2013-12-31 04:45:00,-19.8,-25.2,29.61,WSW,248,0.0,0.0,75,0.00,,,-99.99,VWS V12.07,2013-12-31 10:45:00,
2013-12-31 04:50:00,-19.8,-25.2,29.61,WSW,248,0.0,0.0,75,0.00,,,-99.99,VWS V12.07,2013-12-31 10:50:00,
2013-12-31 04:55:00,-19.8,-25.2,29.61,WSW,248,0.0,0.0,75,0.00,,,-99.99,VWS V12.07,2013-12-31 10:55:00,
2013-12-31 05:00:00,-19.8,-25.2,29.61,WSW,248,0.0,0.0,75,0.00,,,-99.99,VWS V12.07,2013-12-31 11:00:00,
2013-12-31 05:05:00,-19.8,-25.2,29.60,WSW,248,0.0,0.0,75,0.00,,,-99.99,VWS V12.07,2013-12-31 11:05:00,
2013-12-31 05:10:00,-19.8,-25.2,29.61,WSW,248,0.0,0.0,75,0.00,,,-99.99,VWS V12.07,2013-12-31 11:10:00,
2013-12-31 05:15:00,-19.8,-25.2,29.61,WSW,248,0.0,0.0,75,0.00,,,-99.99,VWS V12.07,2013-12-31 11:15:00,
2013-12-31 05:20:00,-19.8,-25.2,29.61,WSW,248,0.0,0.0,75,0.00,,,-99.99,VWS V12.07,2013-12-31 11:20:00,
2013-12-31 05:25:00,-19.8,-25.2,29.61,WSW,248,0.0,0.0,75,0.00,,,-99.99,VWS V12.07,2013-12-31 11:25:00,
2013-12-31 05:30:00,-19.8,-25.2,29.61,WSW,248,0.0,0.0,75,0.00,,,-99.99,VWS V12.07,2013-12-31 11:30:00,
2013-12-31 05:35:00,-19.8,-25.2,29.61,WSW,248,0.0,0.0,75,0.00,,,-99.99,VWS V12.07,2013-12-31 11:35:00,
2013-12-31 05:40:00,-19.8,-25.2,29.61,WSW,248,0.0,0.0,75,0.00,,,-99.99,VWS V12.07,2013-12-31 11:40:00,
2013-12-31 05:45:00,-19.8,-25.2,29.61,WSW,248,0.0,0.0,75,0.00,,,-99.99,VWS V12.07,2013-12-31 11:45:00,
2013-12-31 05:50:00,-19.8,-25.2,29.61,WSW,248,0.0,0.0,75,0.00,,,-99.99,VWS V12.07,2013-12-31 11:50:00,
2013-12-31 05:55:00,-19.8,-25.2,29.61,WSW,248,0.0,0.0,75,0.00,,,-99.99,VWS V12.07,2013-12-31 11:55:00,
2013-12-31 06:00:00,-19.8,-25.2,29.61,WSW,248,0.0,0.0,75,0.00,,,-99.99,VWS V12.07,2013-12-31 12:00:00,
2013-12-31 06:05:00,-19.8,-25.2,29.62,WSW,248,0.0,0.0,75,0.00,,,-99.99,VWS V12.07,2013-12-31 12:05:00,
2013-12-31 06:10:00,-19.8,-25.2,29.62,WSW,248,0.0,0.0,75,0.00,,,-99.99,VWS V12.07,2013-12-31 12:10:00,
2013-12-31 06:15:00,-19.8,-25.2,29.62,WSW,248,0.0,0.0,75,0.00,,,-99.99,VWS V12.07,2013-12-31 12:15:00,
2013-12-31 06:20:00,-19.8,-25.2,29.62,WSW,248,0.0,0.0,75,0.00,,,-99.99,VWS V12.07,2013-12-31 12:20:00,
2013-12-31 06:25:00,-19.8,-25.2,29.62,WSW,248,0.0,0.0,75,0.00,,,-99.99,VWS V12.07,2013-12-31 12:25:00,
2013-12-31 06:30:00,-19.8,-25.2,29.62,WSW,248,0.0,0.0,75,0.00,,,-99.99,VWS V12.07,2013-12-31 12:30:00,
2013-12-31 06:35:00,-19.8,-25.2,29.62,WSW,248,0.0,0.0,75,0.00,,,-99.99,VWS V12.07,2013-12-31 12:35:00,
2013-12-31 06:40:00,-20.0,-25.5,29.63,WSW,248,0.0,0.0,75,0.00,,,-99.99,VWS V12.07,2013-12-31 12:40:00,
2013-12-31 06:45:00,-20.0,-25.5,29.63,WSW,248,0.0,0.0,75,0.00,,,-99.99,VWS V12.07,2013-12-31 12:45:00,
2013-12-31 06:50:00,-20.0,-25.5,29.63,WSW,248,0.0,0.0,75,0.00,,,-99.99,VWS V12.07,2013-12-31 12:50:00,
2013-12-31 06:55:00,-20.0,-25.5,29.63,WSW,248,0.0,0.0,75,0.00,,,-99.99,VWS V12.07,2013-12-31 12:55:00,
2013-12-31 07:00:00,-20.0,-25.5,29.63,WSW,248,0.0,0.0,75,0.00,,,-99.99,VWS V12.07,2013-12-31 13:00:00,
2013-12-31 07:05:00,-20.0,-25.5,29.63,WSW,248,0.0,0.0,75,0.00,,,-99.99,VWS V12.07,2013-12-31 13:05:00,
2013-12-31 07:10:00,-20.0,-25.5,29.63,WSW,248,0.0,0.0,75,0.00,,,-99.99,VWS V12.07,2013-12-31 13:10:00,
2013-12-31 07:15:00,-20.0,-25.5,29.63,WSW,248,0.0,0.0,75,0.00,,,-99.99,VWS V12.07,2013-12-31 13:15:00,
2013-12-31 07:20:00,-20.0,-25.5,29.63,WSW,248,0.0,0.0,75,0.00,,,-99.99,VWS V12.07,2013-12-31 13:20:00,
2013-12-31 07:25:00,-20.2,-25.6,29.63,WSW,248,0.0,0.0,75,0.00,,,-99.99,VWS V12.07,2013-12-31 13:25:00,
2013-12-31 07:30:00,-20.2,-25.6,29.63,WSW,248,0.0,0.0,75,0.00,,,-99.99,VWS V12.07,2013-12-31 13:30:00,
2013-12-31 07:35:00,-20.3,-25.7,29.62,WSW,248,0.0,0.0,75,0.00,,,-99.99,VWS V12.07,2013-12-31 13:35:00,
2013-12-31 07:40:00,-20.3,-25.7,29.63,WSW,248,0.0,0.0,75,0.00,,,-99.99,VWS V12.07,2013-12-31 13:40:00,
2013-12-31 07:45:00,-20.3,-25.7,29.62,WSW,248,0.0,0.0,75,0.00,,,-99.99,VWS V12.07,2013-12-31 13:45:00,
2013-12-31 07:50:00,-20.3,-25.7,29.62,WSW,248,0.0,0.0,75,0.00,,,-99.99,VWS V12.07,2013-12-31 13:50:00,
2013-12-31 07:55:00,-20.5,-25.9,29.62,WSW,248,0.0,0.0,75,0.00,,,-99.99,VWS V12.07,2013-12-31 13:55:00,
2013-12-31 08:00:00,-20.5,-25.9,29.62,WSW,248,0.0,0.0,75,0.00,,,-99.99,VWS V12.07,2013-12-31 14:00:00,
2013-12-31 08:05:00,-20.7,-26.1,29.63,WSW,248,0.0,0.0,75,0.00,,,-99.99,VWS V12.07,2013-12-31 14:05:00,
2013-12-31 08:10:00,-20.7,-26.1,29.63,WSW,248,0.0,0.0,75,0.00,,,-99.99,VWS V12.07,2013-12-31 14:10:00,
2013-12-31 08:15:00,-20.7,-26.1,29.63,WSW,248,0.0,0.0,75,0.00,,,-99.99,VWS V12.07,2013-12-31 14:15:00,
2013-12-31 08:25:00,-20.7,-26.1,29.63,WSW,248,0.0,0.0,75,0.00,,,-99.99,VWS V12.07,2013-12-31 14:25:00,
2013-12-31 08:30:00,-20.7,-26.1,29.63,WSW,248,0.0,0.0,75,0.00,,,-99.99,VWS V12.07,2013-12-31 14:30:00,
2013-12-31 08:35:00,-20.3,-25.7,29.63,WSW,248,0.0,0.0,75,0.00,,,-99.99,VWS V12.07,2013-12-31 14:35:00,
2013-12-31 08:40:00,-20.2,-25.6,29.64,WSW,248,0.0,0.0,75,0.00,,,-99.99,VWS V12.07,2013-12-31 14:40:00,
2013-12-31 08:45:00,-19.3,-24.5,29.64,WSW,248,0.0,0.0,76,0.00,,,-99.99,VWS V12.07,2013-12-31 14:45:00,
2013-12-31 08:50:00,-18.5,-23.7,29.64,SSW,202,0.0,0.0,76,0.00,,,-99.99,VWS V12.07,2013-12-31 14:50:00,
2013-12-31 08:55:00,-17.6,-22.9,29.64,SW,225,0.0,0.0,76,0.00,,,-99.99,VWS V12.07,2013-12-31 14:55:00,
2013-12-31 09:00:00,-16.7,-21.7,29.64,SW,225,0.0,0.0,77,0.00,,,-99.99,VWS V12.07,2013-12-31 15:00:00,
2013-12-31 09:05:00,-15.7,-20.8,29.64,West,270,0.0,0.0,77,0.00,,,-99.99,VWS V12.07,2013-12-31 15:05:00,
2013-12-31 09:10:00,-14.9,-20.0,29.64,West,270,0.0,0.0,77,0.00,,,-99.99,VWS V12.07,2013-12-31 15:10:00,
2013-12-31 09:15:00,-14.2,-19.3,29.64,NW,315,0.0,0.0,77,0.00,,,-99.99,VWS V12.07,2013-12-31 15:15:00,
2013-12-31 09:20:00,-13.1,-18.0,29.65,NW,315,0.0,0.0,78,0.00,,,-99.99,VWS V12.07,2013-12-31 15:20:00,
2013-12-31 09:25:00,-12.6,-17.5,29.65,NW,315,0.0,0.0,78,0.00,,,-99.99,VWS V12.07,2013-12-31 15:25:00,
2013-12-31 09:30:00,-12.1,-17.0,29.65,WNW,292,0.0,0.0,78,0.00,,,-99.99,VWS V12.07,2013-12-31 15:30:00,
2013-12-31 09:35:00,-11.5,-16.4,29.65,North,0,0.0,0.0,78,0.00,,,-99.99,VWS V12.07,2013-12-31 15:35:00,
2013-12-31 09:40:00,-11.3,-16.2,29.66,WNW,292,0.0,0.0,78,0.00,,,-99.99,VWS V12.07,2013-12-31 15:40:00,
2013-12-31 09:45:00,-10.8,-15.7,29.66,North,0,0.0,0.0,78,0.00,,,-99.99,VWS V12.07,2013-12-31 15:45:00,
2013-12-31 09:50:00,-10.3,-15.2,29.66,SW,225,0.0,0.0,78,0.00,,,-99.99,VWS V12.07,2013-12-31 15:50:00,
2013-12-31 09:55:00,-9.9,-14.9,29.67,NNE,22,3.5,3.5,78,0.00,,,-99.99,VWS V12.07,2013-12-31 15:55:00,
2013-12-31 10:00:00,-9.5,-14.5,29.67,NW,315,0.0,3.5,78,0.00,,,-99.99,VWS V12.07,2013-12-31 16:00:00,
2013-12-31 10:05:00,-9.0,-14.0,29.67,NNE,22,0.0,0.0,78,0.00,,,-99.99,VWS V12.07,2013-12-31 16:05:00,
2013-12-31 10:10:00,-8.8,-13.8,29.67,NNE,22,0.0,0.0,78,0.00,,,-99.99,VWS V12.07,2013-12-31 16:10:00,
2013-12-31 10:15:00,-8.3,-13.3,29.67,NW,315,0.0,0.0,78,0.00,,,-99.99,VWS V12.07,2013-12-31 16:15:00,
2013-12-31 10:20:00,-7.9,-12.9,29.67,SSE,158,0.0,0.0,78,0.00,,,-99.99,VWS V12.07,2013-12-31 16:20:00,
2013-12-31 10:25:00,-7.9,-12.9,29.68,WNW,292,0.0,0.0,78,0.00,,,-99.99,VWS V12.07,2013-12-31 16:25:00,
2013-12-31 10:30:00,-7.7,-12.7,29.68,West,270,0.0,1.7,78,0.00,,,-99.99,VWS V12.07,2013-12-31 16:30:00,
2013-12-31 10:35:00,-7.4,-12.4,29.67,WNW,292,2.4,2.4,78,0.00,,,-99.99,VWS V12.07,2013-12-31 16:35:00,
2013-12-31 10:40:00,-7.0,-12.0,29.67,West,270,0.0,2.6,78,0.00,,,-99.99,VWS V12.07,2013-12-31 16:40:00,
2013-12-31 10:45:00,-6.8,-11.8,29.67,SSW,202,0.0,2.6,78,0.00,,,-99.99,VWS V12.07,2013-12-31 16:45:00,
2013-12-31 10:50:00,-6.5,-11.6,29.67,WSW,248,0.0,0.0,78,0.00,,,-99.99,VWS V12.07,2013-12-31 16:50:00,
2013-12-31 10:55:00,-6.1,-11.2,29.67,WSW,248,0.0,0.0,78,0.00,,,-99.99,VWS V12.07,2013-12-31 16:55:00,
2013-12-31 11:00:00,-5.9,-11.0,29.67,West,270,0.0,1.3,78,0.00,,,-99.99,VWS V12.07,2013-12-31 17:00:00,
2013-12-31 11:05:00,-5.4,-10.5,29.67,NNW,338,0.0,0.0,78,0.00,,,-99.99,VWS V12.07,2013-12-31 17:05:00,
2013-12-31 11:10:00,-5.2,-10.3,29.67,NW,315,0.0,0.0,78,0.00,,,-99.99,VWS V12.07,2013-12-31 17:10:00,
2013-12-31 11:20:00,-4.9,-10.2,29.67,SW,225,0.0,5.3,77,0.00,,,-99.99,VWS V12.07,2013-12-31 17:20:00,
2013-12-31 11:25:00,-4.7,-10.1,29.67,North,0,0.0,5.3,77,0.00,,,-99.99,VWS V12.07,2013-12-31 17:25:00,
2013-12-31 11:30:00,-4.7,-10.1,29.67,WSW,248,0.0,5.3,77,0.00,,,-99.99,VWS V12.07,2013-12-31 17:30:00,
2013-12-31 11:35:00,-4.3,-9.7,29.67,NW,315,0.0,0.0,77,0.00,,,-99.99,VWS V12.07,2013-12-31 17:35:00,
2013-12-31 11:40:00,-4.3,-9.9,29.67,North,0,0.0,0.0,76,0.00,,,-99.99,VWS V12.07,2013-12-31 17:40:00,
2013-12-31 11:45:00,-4.1,-9.7,29.67,WSW,248,0.0,0.0,76,0.00,,,-99.99,VWS V12.07,2013-12-31 17:45:00,
2013-12-31 11:50:00,-4.1,-9.7,29.68,WSW,248,0.0,0.0,76,0.00,,,-99.99,VWS V12.07,2013-12-31 17:50:00,
2013-12-31 11:55:00,-4.1,-9.7,29.68,SSW,202,0.0,4.9,76,0.00,,,-99.99,VWS V12.07,2013-12-31 17:55:00,
2013-12-31 12:00:00,-4.1,-9.7,29.68,West,270,2.4,4.9,76,0.00,,,-99.99,VWS V12.07,2013-12-31 18:00:00,
2013-12-31 12:05:00,-4.1,-10.0,29.68,NW,315,0.0,4.4,75,0.00,,,-99.99,VWS V12.07,2013-12-31 18:05:00,
2013-12-31 12:10:00,-3.8,-9.7,29.68,SW,225,0.0,4.4,75,0.00,,,-99.99,VWS V12.07,2013-12-31 18:10:00,
2013-12-31 12:15:00,-3.8,-9.7,29.68,SW,225,0.0,4.4,75,0.00,,,-99.99,VWS V12.07,2013-12-31 18:15:00,
2013-12-31 12:20:00,-3.6,-9.5,29.68,SW,225,0.0,0.0,75,0.00,,,-99.99,VWS V12.07,2013-12-31 18:20:00,
2013-12-31 12:25:00,-3.6,-9.5,29.68,SW,225,0.0,0.0,75,0.00,,,-99.99,VWS V12.07,2013-12-31 18:25:00,
2013-12-31 12:30:00,-3.6,-9.5,29.68,WSW,248,0.0,0.0,75,0.00,,,-99.99,VWS V12.07,2013-12-31 18:30:00,
2013-12-31 12:35:00,-3.2,-9.1,29.69,WNW,292,3.8,4.4,75,0.00,,,-99.99,VWS V12.07,2013-12-31 18:35:00,
2013-12-31 12:40:00,-3.2,-9.1,29.69,WSW,248,0.0,4.4,75,0.00,,,-99.99,VWS V12.07,2013-12-31 18:40:00,
2013-12-31 12:45:00,-3.2,-9.1,29.69,SW,225,4.6,4.6,75,0.00,,,-99.99,VWS V12.07,2013-12-31 18:45:00,
2013-12-31 12:50:00,-3.2,-9.1,29.69,WSW,248,0.0,0.0,75,0.00,,,-99.99,VWS V12.07,2013-12-31 18:50:00,
2013-12-31 13:00:00,-3.2,-9.1,29.69,WSW,248,0.0,0.0,75,0.00,,,-99.99,VWS V12.07,2013-12-31 19:00:00,
2013-12-31 13:05:00,-3.2,-9.1,29.69,West,270,0.0,0.0,75,0.00,,,-99.99,VWS V12.07,2013-12-31 19:05:00,
2013-12-31 13:10:00,-3.1,-9.3,29.70,WNW,292,0.0,0.0,74,0.00,,,-99.99,VWS V12.07,2013-12-31 19:10:00,
2013-12-31 13:15:00,-3.1,-9.3,29.70,NE,45,0.0,0.0,74,0.00,,,-99.99,VWS V12.07,2013-12-31 19:15:00,
2013-12-31 13:20:00,-2.9,-9.1,29.69,SSW,202,0.0,0.0,74,0.00,,,-99.99,VWS V12.07,2013-12-31 19:20:00,
2013-12-31 13:25:00,-2.9,-9.1,29.70,SW,225,0.0,0.0,74,0.00,,,-99.99,VWS V12.07,2013-12-31 19:25:00,
2013-12-31 13:30:00,-2.9,-9.1,29.70,WSW,248,0.0,0.0,74,0.00,,,-99.99,VWS V12.07,2013-12-31 19:30:00,
2013-12-31 13:35:00,-2.7,-8.9,29.70,WNW,292,0.0,0.0,74,0.00,,,-99.99,VWS V12.07,2013-12-31 19:35:00,
2013-12-31 13:45:00,-2.7,-8.9,29.71,NW,315,0.0,0.0,74,0.00,,,-99.99,VWS V12.07,2013-12-31 19:45:00,
2013-12-31 13:50:00,-3.1,-9.6,29.71,NW,315,0.0,0.0,73,0.00,,,-99.99,VWS V12.07,2013-12-31 19:50:00,
2013-12-31 13:55:00,-3.2,-9.7,29.70,WSW,248,0.0,0.0,73,0.00,,,-99.99,VWS V12.07,2013-12-31 19:55:00,
2013-12-31 14:00:00,-3.4,-9.9,29.70,NW,315,0.0,0.0,73,0.00,,,-99.99,VWS V12.07,2013-12-31 20:00:00,
2013-12-31 14:05:00,-3.8,-10.3,29.70,SW,225,0.0,0.0,73,0.00,,,-99.99,VWS V12.07,2013-12-31 20:05:00,
2013-12-31 14:10:00,-3.8,-10.3,29.71,WSW,248,0.0,0.0,73,0.00,,,-99.99,VWS V12.07,2013-12-31 20:10:00,
2013-12-31 14:15:00,-3.8,-10.3,29.70,North,0,0.0,0.0,73,0.00,,,-99.99,VWS V12.07,2013-12-31 20:15:00,
2013-12-31 14:20:00,-3.8,-10.3,29.71,NNW,338,5.3,5.3,73,0.00,,,-99.99,VWS V12.07,2013-12-31 20:20:00,
2013-12-31 14:25:00,-3.8,-10.3,29.71,WNW,292,0.0,5.3,73,0.00,,,-99.99,VWS V12.07,2013-12-31 20:25:00,
2013-12-31 14:30:00,-4.1,-10.6,29.71,ENE,68,0.0,5.3,73,0.00,,,-99.99,VWS V12.07,2013-12-31 20:30:00,
2013-12-31 14:35:00,-4.1,-10.6,29.71,WSW,248,0.0,0.0,73,0.00,,,-99.99,VWS V12.07,2013-12-31 20:35:00,
2013-12-31 14:40:00,-4.1,-10.6,29.72,WSW,248,4.4,4.4,73,0.00,,,-99.99,VWS V12.07,2013-12-31 20:40:00,
2013-12-31 14:45:00,-4.1,-10.6,29.72,SSW,202,0.0,4.4,73,0.00,,,-99.99,VWS V12.07,2013-12-31 20:45:00,
2013-12-31 14:55:00,-4.1,-10.6,29.72,West,270,0.0,0.0,73,0.00,,,-99.99,VWS V12.07,2013-12-31 20:55:00,
2013-12-31 15:00:00,-4.1,-10.6,29.72,NW,315,0.0,0.0,73,0.00,,,-99.99,VWS V12.07,2013-12-31 21:00:00,
2013-12-31 15:05:00,-4.1,-10.6,29.72,WNW,292,0.0,0.0,73,0.00,,,-99.99,VWS V12.07,2013-12-31 21:05:00,
2013-12-31 15:10:00,-4.1,-10.6,29.73,West,270,0.0,0.0,73,0.00,,,-99.99,VWS V12.07,2013-12-31 21:10:00,
2013-12-31 15:15:00,-4.1,-10.6,29.73,West,270,0.0,0.0,73,0.00,,,-99.99,VWS V12.07,2013-12-31 21:15:00,
2013-12-31 15:20:00,-4.1,-10.6,29.73,NW,315,5.8,5.8,73,0.00,,,-99.99,VWS V12.07,2013-12-31 21:20:00,
2013-12-31 15:25:00,-4.1,-10.6,29.73,NW,315,0.0,5.8,73,0.00,,,-99.99,VWS V12.07,2013-12-31 21:25:00,
2013-12-31 15:30:00,-4.3,-10.7,29.73,WNW,292,0.0,5.8,73,0.00,,,-99.99,VWS V12.07,2013-12-31 21:30:00,
2013-12-31 15:35:00,-4.3,-10.7,29.73,NNW,338,0.0,0.0,73,0.00,,,-99.99,VWS V12.07,2013-12-31 21:35:00,
2013-12-31 15:40:00,-4.3,-10.7,29.74,NNW,338,0.0,0.0,73,0.00,,,-99.99,VWS V12.07,2013-12-31 21:40:00,
2013-12-31 15:45:00,-4.7,-11.1,29.74,NNW,338,0.0,0.0,73,0.00,,,-99.99,VWS V12.07,2013-12-31 21:45:00,
2013-12-31 15:50:00,-4.7,-11.1,29.74,NNW,338,0.0,0.0,73,0.00,,,-99.99,VWS V12.07,2013-12-31 21:50:00,
2013-12-31 15:55:00,-4.7,-11.1,29.75,NNW,338,0.0,0.0,73,0.00,,,-99.99,VWS V12.07,2013-12-31 21:55:00,
2013-12-31 16:00:00,-4.9,-11.3,29.75,NNW,338,0.0,0.0,73,0.00,,,-99.99,VWS V12.07,2013-12-31 22:00:00,
2013-12-31 16:05:00,-4.9,-11.3,29.74,NNW,338,0.0,0.0,73,0.00,,,-99.99,VWS V12.07,2013-12-31 22:05:00,
2013-12-31 16:10:00,-5.0,-11.4,29.74,NNW,338,0.0,0.0,73,0.00,,,-99.99,VWS V12.07,2013-12-31 22:10:00,
2013-12-31 16:15:00,-5.2,-11.9,29.75,NNW,338,0.0,0.0,72,0.00,,,-99.99,VWS V12.07,2013-12-31 22:15:00,
2013-12-31 16:20:00,-5.8,-12.5,29.75,NNW,338,0.0,0.0,72,0.00,,,-99.99,VWS V12.07,2013-12-31 22:20:00,
2013-12-31 16:25:00,-5.9,-12.6,29.75,NNW,338,0.0,0.0,72,0.00,,,-99.99,VWS V12.07,2013-12-31 22:25:00,
2013-12-31 16:30:00,-6.3,-13.0,29.75,NNW,338,0.0,0.0,72,0.00,,,-99.99,VWS V12.07,2013-12-31 22:30:00,
2013-12-31 16:35:00,-6.5,-13.1,29.75,NNW,338,0.0,0.0,72,0.00,,,-99.99,VWS V12.07,2013-12-31 22:35:00,
2013-12-31 16:40:00,-6.8,-13.4,29.75,NNW,338,0.0,0.0,72,0.00,,,-99.99,VWS V12.07,2013-12-31 22:40:00,
2013-12-31 16:45:00,-7.4,-14.0,29.75,NNW,338,0.0,0.0,72,0.00,,,-99.99,VWS V12.07,2013-12-31 22:45:00,
2013-12-31 16:50:00,-7.7,-14.3,29.76,NNW,338,0.0,0.0,72,0.00,,,-99.99,VWS V12.07,2013-12-31 22:50:00,
2013-12-31 16:55:00,-7.9,-14.5,29.76,NNW,338,0.0,0.0,72,0.00,,,-99.99,VWS V12.07,2013-12-31 22:55:00,
2013-12-31 17:00:00,-8.5,-15.1,29.77,NNW,338,0.0,0.0,72,0.00,,,-99.99,VWS V12.07,2013-12-31 23:00:00,
2013-12-31 17:05:00,-8.6,-15.2,29.77,NNW,338,0.0,0.0,72,0.00,,,-99.99,VWS V12.07,2013-12-31 23:05:00,
2013-12-31 17:10:00,-9.0,-15.6,29.77,NNW,338,0.0,0.0,72,0.00,,,-99.99,VWS V12.07,2013-12-31 23:10:00,
2013-12-31 17:15:00,-9.5,-16.0,29.77,NNW,338,0.0,0.0,72,0.00,,,-99.99,VWS V12.07,2013-12-31 23:15:00,
2013-12-31 17:20:00,-9.7,-16.2,29.77,NNW,338,0.0,0.0,72,0.00,,,-99.99,VWS V12.07,2013-12-31 23:20:00,
2013-12-31 17:25:00,-10.3,-16.8,29.78,NNW,338,0.0,0.0,72,0.00,,,-99.99,VWS V12.07,2013-12-31 23:25:00,
2013-12-31 17:30:00,-10.6,-17.1,29.78,NNW,338,0.0,0.0,72,0.00,,,-99.99,VWS V12.07,2013-12-31 23:30:00,
2013-12-31 17:35:00,-11.0,-17.5,29.78,NNW,338,0.0,0.0,72,0.00,,,-99.99,VWS V12.07,2013-12-31 23:35:00,
2013-12-31 17:40:00,-11.3,-17.8,29.78,NNW,338,0.0,0.0,72,0.00,,,-99.99,VWS V12.07,2013-12-31 23:40:00,
2013-12-31 17:45:00,-11.5,-18.0,29.78,NNW,338,0.0,0.0,72,0.00,,,-99.99,VWS V12.07,2013-12-31 23:45:00,
2013-12-31 17:50:00,-11.9,-18.4,29.78,NNW,338,0.0,0.0,72,0.00,,,-99.99,VWS V12.07,2013-12-31 23:50:00,
2013-12-31 17:55:00,-12.1,-18.6,29.79,NNW,338,0.0,0.0,72,0.00,,,-99.99,VWS V12.07,2013-12-31 23:55:00,
2013-12-31 18:00:00,-12.2,-18.7,29.79,NNW,338,0.0,0.0,72,0.00,,,-99.99,VWS V12.07,2014-01-01 00:00:00,
2013-12-31 18:05:00,-12.4,-18.9,29.79,NNW,338,0.0,0.0,72,0.00,,,-99.99,VWS V12.07,2014-01-01 00:05:00,
2013-12-31 18:10:00,-12.4,-18.9,29.79,NNW,338,0.0,0.0,72,0.00,,,-99.99,VWS V12.07,2014-01-01 00:10:00,
2013-12-31 18:15:00,-12.8,-19.2,29.79,NNW,338,0.0,0.0,72,0.00,,,-99.99,VWS V12.07,2014-01-01 00:15:00,
2013-12-31 18:20:00,-13.0,-19.4,29.79,NNW,338,0.0,0.0,72,0.00,,,-99.99,VWS V12.07,2014-01-01 00:20:00,
2013-12-31 18:25:00,-13.1,-19.3,29.79,NNW,338,0.0,0.0,73,0.00,,,-99.99,VWS V12.07,2014-01-01 00:25:00,
2013-12-31 18:30:00,-13.3,-19.5,29.79,NNW,338,0.0,0.0,73,0.00,,,-99.99,VWS V12.07,2014-01-01 00:30:00,
2013-12-31 18:35:00,-13.5,-19.6,29.79,NNW,338,0.0,0.0,73,0.00,,,-99.99,VWS V12.07,2014-01-01 00:35:00,
2013-12-31 18:40:00,-13.7,-19.9,29.80,NNW,338,0.0,0.0,73,0.00,,,-99.99,VWS V12.07,2014-01-01 00:40:00,
2013-12-31 18:45:00,-14.0,-20.4,29.80,NNW,338,0.0,0.0,72,0.00,,,-99.99,VWS V12.07,2014-01-01 00:45:00,
2013-12-31 18:50:00,-14.0,-20.1,29.80,NNW,338,0.0,0.0,73,0.00,,,-99.99,VWS V12.07,2014-01-01 00:50:00,
2013-12-31 18:55:00,-14.2,-20.3,29.80,NNW,338,0.0,0.0,73,0.00,,,-99.99,VWS V12.07,2014-01-01 00:55:00,
2013-12-31 19:00:00,-14.6,-20.7,29.80,NNW,338,0.0,0.0,73,0.00,,,-99.99,VWS V12.07,2014-01-01 01:00:00,
2013-12-31 19:05:00,-14.6,-20.7,29.81,NNW,338,0.0,0.0,73,0.00,,,-99.99,VWS V12.07,2014-01-01 01:05:00,
2013-12-31 19:10:00,-14.9,-21.0,29.81,NNW,338,0.0,0.0,73,0.00,,,-99.99,VWS V12.07,2014-01-01 01:10:00,
2013-12-31 19:15:00,-15.1,-21.2,29.81,NNW,338,0.0,0.0,73,0.00,,,-99.99,VWS V12.07,2014-01-01 01:15:00,
2013-12-31 19:20:00,-15.1,-21.2,29.81,NNW,338,0.0,0.0,73,0.00,,,-99.99,VWS V12.07,2014-01-01 01:20:00,
2013-12-31 19:25:00,-15.5,-21.6,29.81,NNW,338,0.0,0.0,73,0.00,,,-99.99,VWS V12.07,2014-01-01 01:25:00,
2013-12-31 19:30:00,-15.5,-21.6,29.82,NNW,338,0.0,0.0,73,0.00,,,-99.99,VWS V12.07,2014-01-01 01:30:00,
2013-12-31 19:35:00,-15.8,-21.9,29.82,NNW,338,0.0,0.0,73,0.00,,,-99.99,VWS V12.07,2014-01-01 01:35:00,
2013-12-31 19:40:00,-16.0,-22.1,29.82,NNW,338,0.0,0.0,73,0.00,,,-99.99,VWS V12.07,2014-01-01 01:40:00,
2013-12-31 19:45:00,-16.2,-22.3,29.82,NNW,338,0.0,0.0,73,0.00,,,-99.99,VWS V12.07,2014-01-01 01:45:00,
2013-12-31 19:50:00,-16.4,-22.5,29.82,NNW,338,0.0,0.0,73,0.00,,,-99.99,VWS V12.07,2014-01-01 01:50:00,
2013-12-31 19:55:00,-16.6,-22.7,29.83,NNW,338,0.0,0.0,73,0.00,,,-99.99,VWS V12.07,2014-01-01 01:55:00,
2013-12-31 20:00:00,-16.7,-22.8,29.83,NNW,338,0.0,0.0,73,0.00,,,-99.99,VWS V12.07,2014-01-01 02:00:00,
2013-12-31 20:05:00,-16.9,-23.0,29.82,NNW,338,0.0,0.0,73,0.00,,,-99.99,VWS V12.07,2014-01-01 02:05:00,
2013-12-31 20:10:00,-17.1,-23.1,29.83,NNW,338,0.0,0.0,73,0.00,,,-99.99,VWS V12.07,2014-01-01 02:10:00,
2013-12-31 20:15:00,-17.3,-23.3,29.83,NNW,338,0.0,0.0,73,0.00,,,-99.99,VWS V12.07,2014-01-01 02:15:00,
2013-12-31 20:20:00,-17.3,-23.3,29.83,NNW,338,0.0,0.0,73,0.00,,,-99.99,VWS V12.07,2014-01-01 02:20:00,
2013-12-31 20:25:00,-17.3,-23.3,29.83,NNW,338,0.0,0.0,73,0.00,,,-99.99,VWS V12.07,2014-01-01 02:25:00,
2013-12-31 20:30:00,-17.5,-23.5,29.83,NNW,338,0.0,0.0,73,0.00,,,-99.99,VWS V12.07,2014-01-01 02:30:00,
2013-12-31 20:35:00,-17.5,-23.5,29.83,NNW,338,0.0,0.0,73,0.00,,,-99.99,VWS V12.07,2014-01-01 02:35:00,
2013-12-31 20:40:00,-17.6,-23.6,29.83,NNW,338,0.0,0.0,73,0.00,,,-99.99,VWS V12.07,2014-01-01 02:40:00,
2013-12-31 20:45:00,-17.6,-23.6,29.83,NNW,338,0.0,0.0,73,0.00,,,-99.99,VWS V12.07,2014-01-01 02:45:00,
2013-12-31 20:50:00,-17.6,-23.6,29.83,NNW,338,0.0,0.0,73,0.00,,,-99.99,VWS V12.07,2014-01-01 02:50:00,
2013-12-31 20:55:00,-17.6,-23.6,29.83,NNW,338,0.0,0.0,73,0.00,,,-99.99,VWS V12.07,2014-01-01 02:55:00,
2013-12-31 21:00:00,-17.8,-23.8,29.83,NNW,338,0.0,0.0,73,0.00,,,-99.99,VWS V12.07,2014-01-01 03:00:00,
2013-12-31 21:05:00,-17.8,-23.8,29.83,NNW,338,0.0,0.0,73,0.00,,,-99.99,VWS V12.07,2014-01-01 03:05:00,
2013-12-31 21:10:00,-18.0,-24.0,29.83,NNW,338,0.0,0.0,73,0.00,,,-99.99,VWS V12.07,2014-01-01 03:10:00,
2013-12-31 21:15:00,-18.0,-24.0,29.84,NNW,338,0.0,0.0,73,0.00,,,-99.99,VWS V12.07,2014-01-01 03:15:00,
2013-12-31 21:20:00,-18.0,-24.0,29.83,NNW,338,0.0,0.0,73,0.00,,,-99.99,VWS V12.07,2014-01-01 03:20:00,
2013-12-31 21:25:00,-17.8,-23.8,29.83,NNW,338,0.0,0.0,73,0.00,,,-99.99,VWS V12.07,2014-01-01 03:25:00,
2013-12-31 21:30:00,-17.6,-23.6,29.84,NNW,338,0.0,0.0,73,0.00,,,-99.99,VWS V12.07,2014-01-01 03:30:00,
2013-12-31 21:35:00,-17.6,-23.6,29.84,NNW,338,0.0,0.0,73,0.00,,,-99.99,VWS V12.07,2014-01-01 03:35:00,
2013-12-31 21:40:00,-17.6,-23.6,29.84,NW,315,0.0,0.0,73,0.00,,,-99.99,VWS V12.07,2014-01-01 03:40:00,
2013-12-31 21:45:00,-17.3,-23.1,29.84,NW,315,0.0,0.0,74,0.00,,,-99.99,VWS V12.07,2014-01-01 03:45:00,
2013-12-31 21:50:00,-17.3,-23.1,29.84,NW,315,0.0,0.0,74,0.00,,,-99.99,VWS V12.07,2014-01-01 03:50:00,
2013-12-31 21:55:00,-17.1,-22.9,29.84,NW,315,0.0,0.0,74,0.00,,,-99.99,VWS V12.07,2014-01-01 03:55:00,
2013-12-31 22:00:00,-17.1,-22.9,29.85,NW,315,0.0,0.0,74,0.00,,,-99.99,VWS V12.07,2014-01-01 04:00:00,
2013-12-31 22:05:00,-17.1,-22.9,29.84,NW,315,0.0,0.0,74,0.00,,,-99.99,VWS V12.07,2014-01-01 04:05:00,
2013-12-31 22:10:00,-17.1,-22.9,29.84,NW,315,0.0,0.0,74,0.00,,,-99.99,VWS V12.07,2014-01-01 04:10:00,
2013-12-31 22:15:00,-17.3,-23.1,29.84,NW,315,0.0,0.0,74,0.00,,,-99.99,VWS V12.07,2014-01-01 04:15:00,
2013-12-31 22:20:00,-17.5,-23.3,29.84,NW,315,0.0,0.0,74,0.00,,,-99.99,VWS V12.07,2014-01-01 04:20:00,
2013-12-31 22:25:00,-17.5,-23.3,29.85,NW,315,0.0,0.0,74,0.00,,,-99.99,VWS V12.07,2014-01-01 04:25:00,
2013-12-31 22:30:00,-17.6,-23.4,29.85,NW,315,0.0,0.0,74,0.00,,,-99.99,VWS V12.07,2014-01-01 04:30:00,
2013-12-31 22:35:00,-17.6,-23.4,29.85,NW,315,0.0,0.0,74,0.00,,,-99.99,VWS V12.07,2014-01-01 04:35:00,
2013-12-31 22:40:00,-17.8,-23.6,29.85,NW,315,0.0,0.0,74,0.00,,,-99.99,VWS V12.07,2014-01-01 04:40:00,
2013-12-31 22:45:00,-17.8,-23.6,29.85,NW,315,0.0,0.0,74,0.00,,,-99.99,VWS V12.07,2014-01-01 04:45:00,
2013-12-31 22:50:00,-18.2,-24.0,29.85,NW,315,0.0,0.0,74,0.00,,,-99.99,VWS V12.07,2014-01-01 04:50:00,
2013-12-31 22:55:00,-18.2,-24.0,29.86,NW,315,0.0,0.0,74,0.00,,,-99.99,VWS V12.07,2014-01-01 04:55:00,
2013-12-31 23:00:00,-18.4,-24.1,29.86,NW,315,0.0,0.0,74,0.00,,,-99.99,VWS V12.07,2014-01-01 05:00:00,
2013-12-31 23:05:00,-18.5,-24.2,29.85,NW,315,0.0,0.0,74,0.00,,,-99.99,VWS V12.07,2014-01-01 05:05:00,
2013-12-31 23:10:00,-18.5,-24.2,29.86,NW,315,0.0,0.0,74,0.00,,,-99.99,VWS V12.07,2014-01-01 05:10:00,
2013-12-31 23:15:00,-18.7,-24.4,29.86,NW,315,0.0,0.0,74,0.00,,,-99.99,VWS V12.07,2014-01-01 05:15:00,
2013-12-31 23:20:00,-18.7,-24.4,29.86,NW,315,0.0,0.0,74,0.00,,,-99.99,VWS V12.07,2014-01-01 05:20:00,
2013-12-31 23:25:00,-19.1,-24.8,29.86,NW,315,0.0,0.0,74,0.00,,,-99.99,VWS V12.07,2014-01-01 05:25:00,
2013-12-31 23:30:00,-19.1,-24.8,29.86,NW,315,0.0,0.0,74,0.00,,,-99.99,VWS V12.07,2014-01-01 05:30:00,
2013-12-31 23:35:00,-19.1,-24.8,29.86,NW,315,0.0,0.0,74,0.00,,,-99.99,VWS V12.07,2014-01-01 05:35:00,
2013-12-31 23:40:00,-19.1,-24.8,29.86,NW,315,0.0,0.0,74,0.00,,,-99.99,VWS V12.07,2014-01-01 05:40:00,
2013-12-31 23:45:00,-19.1,-24.8,29.86,NW,315,0.0,0.0,74,0.00,,,-99.99,VWS V12.07,2014-01-01 05:45:00,
2013-12-31 23:50:00,-19.1,-24.8,29.86,NW,315,0.0,0.0,74,0.00,,,-99.99,VWS V12.07,2014-01-01 05:50:00,
2013-12-31 23:55:00,-19.1,-24.8,29.86,NW,315,0.0,0.0,74,0.00,,,-99.99,VWS V12.07,2014-01-01 05:55:00,